Flight Track Log - Related Links

Times and Time Zones

All times are in EDT time to prevent confusion due to time zone crossing. See the N121JM flight status page for this flight to view local times or setup timezone preferences in your user account.

Time Position Orientation Groundspeed Altitude Reporting Facility
EDT Latitude Longitude Course Direction KTS MPH feet Rate Location/Type
Sun 03:51:03 PM 26.7131 -79.9917 50° Northeast 216 249 5,200  Level Miami Center
Sun 03:52:03 PM 26.7731 -79.9211 46° Northeast 234 269 8,800 2,750 Climbing Miami Center
Sun 03:53:03 PM 26.8225 -79.8547 50° Northeast 268 308 10,700 2,100 Climbing Miami Center
Sun 03:54:03 PM 26.8825 -79.7725 51° Northeast 326 375 13,000 2,350 Climbing Miami Center
Sun 03:55:00 PM 27.0444 -79.4963 50° Northeast  Level FlightAware Approximate
Sun 03:55:03 PM 26.9514 -79.6694 53° Northeast 368 423 15,400  Level Miami Center
Sun 03:56:03 PM 27.0181 -79.5683 53° Northeast 387 445 17,800 2,300 Climbing Miami Center
Sun 03:57:03 PM 27.0783 -79.4719 55° Northeast 407 468 20,000 1,950 Climbing Miami Center
Sun 03:58:03 PM 27.1450 -79.3661 55° Northeast 415 478 21,700 1,350 Climbing Miami Center
Sun 03:59:03 PM 27.2200 -79.2486 54° Northeast 420 483 22,700 650 Climbing Miami Center
Sun 04:00:03 PM 27.2886 -79.1400 55° Northeast 420 483 23,000 250 Climbing Miami Center
Sun 04:01:03 PM 27.3656 -79.0317 51° Northeast 431 496 23,200 850 Climbing Miami Center
Sun 04:02:03 PM 27.4606 -78.9633 33° Northeast 436 502 24,700 1,650 Climbing Miami Center
Sun 04:03:03 PM 27.5781 -78.9278 15° North 436 502 26,500 1,900 Climbing Miami Center
Sun 04:04:03 PM 27.7119 -78.9069 North 429 494 28,500 1,850 Climbing Miami Center
Sun 04:05:03 PM 27.8333 -78.8878 North 434 499 30,200 1,650 Climbing Miami Center
Sun 04:06:03 PM 27.9419 -78.8756 North 434 499 31,800 1,400 Climbing Miami Center
Sun 04:07:03 PM 28.0675 -78.8661 North 439 505 33,000 1,500 Climbing Miami Center
Sun 04:08:03 PM 28.1950 -78.8494 North 447 514 34,800 1,850 Climbing Miami Center
Sun 04:09:03 PM 28.3122 -78.8328 North 441 507 36,700 1,900 Climbing Miami Center
Sun 04:10:03 PM 28.4375 -78.8161 North 446 513 38,600 1,700 Climbing Miami Center
Sun 04:11:03 PM 28.5506 -78.7967 North 434 499 40,100 1,100 Climbing Miami Center
Sun 04:12:03 PM 28.6739 -78.7775 North 429 494 40,800 450 Climbing Miami Center
Sun 04:13:03 PM 28.7931 -78.7608 North 429 494 41,000 100 Climbing Miami Center
Sun 04:14:03 PM 28.9333 -78.7394 North 438 504 41,000  Level Miami Center
Sun 04:15:03 PM 29.0586 -78.7250 North 454 522 41,000  Level Miami Center
Sun 04:16:03 PM 29.1800 -78.7031 North 449 517 41,000  Level Miami Center
Sun 04:17:03 PM 29.3031 -78.6861 North 444 511 41,000  Level Miami Center
Sun 04:18:03 PM 29.4286 -78.6717 North 444 511 41,000  Level Miami Center
Sun 04:19:03 PM 29.5539 -78.6594 North 444 511 41,000  Level Miami Center
Sun 04:20:16 PM 29.6900 -78.6231 13° North 436 502 41,000  Level Jacksonville Center
Sun 04:21:16 PM 29.8189 -78.6103 North 449 517 41,000 200 Level Jacksonville Center
Sun 04:22:16 PM 29.9478 -78.5972 North 455 524 41,400 590 Climbing Jacksonville Center
Sun 04:23:18 PM 30.0661 -78.5728 10° North 437 503 42,200 682 Climbing Jacksonville Center
Sun 04:24:28 PM 30.2092 -78.5494 North 434 499 42,900 369 Climbing Jacksonville Center
Sun 04:25:28 PM 30.3278 -78.5369 North 439 505 43,000 50 Climbing Jacksonville Center
Sun 04:26:28 PM 30.4481 -78.5169 North 445 512 43,000  Level Jacksonville Center
Sun 04:27:28 PM 30.5686 -78.4969 North 445 512 43,000  Level Jacksonville Center
Sun 04:28:28 PM 30.6994 -78.4767 North 450 518 43,000  Level Jacksonville Center
Sun 04:29:28 PM 30.8217 -78.4564 North 455 524 43,000  Level Jacksonville Center
Sun 04:30:28 PM 30.9464 -78.4361 North 455 524 43,000  Level Jacksonville Center
Sun 04:31:28 PM 31.0708 -78.4156 North 455 524 43,000  Level Jacksonville Center
Sun 04:32:28 PM 31.1933 -78.4000 North 448 516 43,000  Level Jacksonville Center
Sun 04:33:28 PM 31.3200 -78.3769 North 448 516 43,000  Level Jacksonville Center
Sun 04:34:28 PM 31.4444 -78.3539 North 443 510 43,000  Level Jacksonville Center
Sun 04:35:28 PM 31.5711 -78.3356 North 443 510 43,000  Level Jacksonville Center
Sun 04:36:28 PM 31.6936 -78.3147 North 448 516 43,000  Level Jacksonville Center
Sun 04:37:28 PM 31.8158 -78.2942 North 448 516 43,000  Level Jacksonville Center
Sun 04:38:28 PM 31.9425 -78.2731 North 442 509 43,000  Level Jacksonville Center
Sun 04:39:28 PM 32.0708 -78.2469 10° North 449 517 43,000  Level Jacksonville Center
Sun 04:40:28 PM 32.1972 -78.2208 10° North 454 522 43,000  Level Jacksonville Center
Sun 04:41:29 PM 32.3219 -78.2072 North 454 522 43,000  Level Jacksonville Center
Sun 04:42:28 PM 32.4464 -78.1861 North 454 522 43,000  Level Jacksonville Center
Sun 04:43:28 PM 32.5728 -78.1622 North 459 528 43,000  Level Jacksonville Center
Sun 04:44:28 PM 32.6975 -78.1458 North 459 528 43,000  Level Jacksonville Center
Sun 04:46:38 PM 32.9753 -78.1011 North 459 528 43,000  Level Washington Center
Sun 04:47:38 PM 33.0989 -78.0800 North 459 528 43,000  Level Washington Center
Sun 04:48:36 PM 33.2264 -78.0614 North 459 528 43,000  Level Washington Center
Sun 04:49:36 PM 33.3519 -78.0378 North 459 528 43,000  Level Washington Center
Sun 04:50:37 PM 33.4817 -78.0192 North 459 528 43,000  Level Washington Center
Sun 04:51:37 PM 33.6094 -77.9978 North 464 534 43,000  Level Washington Center
Sun 04:52:38 PM 33.7350 -77.9789 North 464 534 43,000  Level Washington Center
Sun 04:53:36 PM 33.8669 -77.9578 North 464 534 43,000  Level Washington Center
Sun 04:54:36 PM 33.9967 -77.9339 North 470 541 43,000  Level Washington Center
Sun 04:55:36 PM 34.1242 -77.9225 North 464 534 43,000  Level Washington Center
Sun 04:56:37 PM 34.2514 -77.9211 North 464 534 43,000  Level Washington Center
Sun 04:57:38 PM 34.3725 -77.9194 North 471 542 43,000  Level Washington Center
Sun 04:58:36 PM 34.4997 -77.9131 North 471 542 43,000  Level Washington Center
Sun 04:59:37 PM 34.6314 -77.9117 360° North 465 535 43,000  Level Washington Center
Sun 05:00:37 PM 34.7608 -77.9078 North 460 529 43,000  Level Washington Center
Sun 05:01:38 PM 34.8839 -77.9036 North 455 524 43,000  Level Washington Center
Sun 05:02:36 PM 35.0133 -77.8997 North 455 524 43,000  Level Washington Center
Sun 05:03:37 PM 35.1408 -77.8933 North 460 529 43,000  Level Washington Center
Sun 05:04:38 PM 35.2744 -77.8894 North 460 529 43,000  Level Washington Center
Sun 05:05:36 PM 35.4058 -77.8856 North 465 535 43,000  Level Washington Center
Sun 05:06:36 PM 35.5353 -77.8817 North 465 535 43,000  Level Washington Center
Sun 05:07:36 PM 35.6689 -77.8803 360° North 465 535 43,000  Level Washington Center
Sun 05:08:37 PM 35.7983 -77.8764 North 465 535 43,000  Level Washington Center
Sun 05:09:37 PM 35.9303 -77.8519 North 465 535 43,000  Level Washington Center
Sun 05:10:38 PM 36.0542 -77.8042 17° North 465 535 43,000  Level Washington Center
Sun 05:11:38 PM 36.1761 -77.7586 17° North 460 529 43,000  Level Washington Center
Sun 05:12:38 PM 36.3000 -77.7106 17° North 460 529 43,000  Level Washington Center
Sun 05:13:36 PM 36.4261 -77.6597 18° North 460 529 43,000  Level Washington Center
Sun 05:14:37 PM 36.5458 -77.6136 17° North 460 529 43,000  Level Washington Center
Sun 05:15:38 PM 36.6697 -77.5653 17° North 460 529 43,000  Level Washington Center
Sun 05:16:39 PM 36.7936 -77.5164 18° North 460 529 43,000  Level Washington Center
Sun 05:17:36 PM 36.9175 -77.4675 18° North 460 529 43,000  Level Washington Center
Sun 05:18:37 PM 37.0414 -77.4186 17° North 460 529 43,000  Level Washington Center
Sun 05:19:38 PM 37.1653 -77.3719 17° North 460 529 43,000  Level Washington Center
Sun 05:20:36 PM 37.2911 -77.3228 17° North 460 529 43,000 -51 Level Washington Center
Sun 05:21:36 PM 37.4128 -77.2625 21° North 460 529 42,900 -246 Descending Washington Center
Sun 05:22:38 PM 37.5328 -77.1894 26° Northeast 466 536 42,500 -650 Descending Washington Center
Sun 05:23:36 PM 37.6483 -77.1131 28° Northeast 471 542 41,600 -1,160 Descending Washington Center
Sun 05:24:37 PM 37.7661 -77.0444 25° Northeast 463 533 40,200 -1,438 Descending Washington Center
Sun 05:25:37 PM 37.8794 -76.9756 26° Northeast 451 519 38,700 -1,488 Descending Washington Center
Sun 05:26:38 PM 37.9992 -76.9067 24° Northeast 451 519 37,200 -1,513 Descending Washington Center
Sun 05:27:36 PM 38.1189 -76.8375 24° Northeast 462 532 35,700 -1,311 Descending Washington Center
Sun 05:28:37 PM 38.2425 -76.7656 25° Northeast 467 537 34,600 -738 Descending Washington Center
Sun 05:29:38 PM 38.3642 -76.6958 24° Northeast 467 537 34,200 -347 Descending Washington Center
Sun 05:30:38 PM 38.4878 -76.6261 24° Northeast 467 537 33,900 -763 Descending Washington Center
Sun 05:31:36 PM 38.6114 -76.5536 25° Northeast 472 543 32,700 -1,815 Descending Washington Center
Sun 05:32:37 PM 38.7369 -76.4778 25° Northeast 484 557 30,300 -2,410 Descending Washington Center
Sun 05:33:38 PM 38.8625 -76.4075 24° Northeast 484 557 27,800 -2,450 Descending Washington Center
Sun 05:34:37 PM 38.9839 -76.3314 26° Northeast 479 551 25,400 -1,866 Descending Washington Center
Sun 05:35:37 PM 39.1011 -76.2631 24° Northeast 467 537 24,100 -694 Descending Washington Center
Sun 05:36:38 PM 39.2183 -76.1569 35° Northeast 453 521 24,000 -50 Descending Washington Center
Sun 05:37:38 PM 39.3169 -76.0503 40° Northeast 458 527 24,000 -51 Level Washington Center
Sun 05:38:36 PM 39.4172 -75.9517 37° Northeast 458 527 23,900 -1,548 Descending Washington Center
Sun 05:40:44 PM 39.6167 -75.7667 36° Northeast 407 468 19,200 -2,590 Descending Philadelphia TRACON
Sun 05:41:39 PM 39.7000 -75.6833 38° Northeast 386 444 16,000 -2,870 Descending Philadelphia TRACON
Sun 05:42:39 PM 39.7833 -75.6167 32° Northeast 340 391 13,700 -1,392 Descending Philadelphia TRACON
Sun 05:43:44 PM 39.8667 -75.5333 37° Northeast 339 390 13,100 -336 Descending Philadelphia TRACON
Sun 05:44:44 PM 39.9333 -75.4667 37° Northeast 309 356 13,000 -100 Descending Philadelphia TRACON
Sun 05:45:44 PM 40.0167 -75.4000 31° Northeast 306 352 12,900 -526 Descending Philadelphia TRACON
Sun 05:46:38 PM 40.0833 -75.3333 37° Northeast 308 354 12,000 -842 Descending Philadelphia TRACON
Sun 05:47:38 PM 40.1500 -75.2833 30° Northeast 316 364 11,300 -619 Descending Philadelphia TRACON
Sun 05:48:44 PM 40.2167 -75.2000 44° Northeast 305 351 10,700 -992 Descending Philadelphia TRACON
Sun 05:49:45 PM 40.2833 -75.1333 37° Northeast 299 344 9,200 -1,556 Descending Philadelphia TRACON
Sun 05:50:32 PM 40.3333 -75.0833 37° Northeast 300 345 7,900 -1,178 Descending New York TRACON
Sun 05:51:32 PM 40.4000 -75.0167 37° Northeast 283 326 7,100 -450 Descending New York TRACON
Sun 05:52:32 PM 40.4500 -74.9333 52° Northeast 279 321 7,000 -350 Descending New York TRACON
Sun 05:53:32 PM 40.5000 -74.8667 45° Northeast 284 327 6,400 -1,000 Descending New York TRACON
Sun 05:54:32 PM 40.5500 -74.7833 52° Northeast 281 323 5,000 -1,100 Descending New York TRACON
Sun 05:55:32 PM 40.6167 -74.7167 37° Northeast 284 327 4,200 -450 Descending New York TRACON
Sun 05:56:32 PM 40.6833 -74.6667 30° Northeast 276 318 4,100 -95 Descending New York TRACON
Sun 05:57:38 PM 40.7500 -74.6333 21° North 264 304 4,000 -200 Descending New York TRACON
Sun 05:58:32 PM 40.8000 -74.5667 45° Northeast 254 292 3,700 -421 Descending New York TRACON
Sun 05:59:32 PM 40.8500 -74.5167 37° Northeast 193 222 3,200 -333 Descending New York TRACON
Sun 06:00:38 PM 40.8833 -74.4667 49° Northeast 190 219 3,000 -571 Descending New York TRACON
Sun 06:01:38 PM 40.8833 -74.4000 90° East 159 183 2,000 -789 Descending New York TRACON
Sun 06:02:32 PM 40.8500 -74.3667 143° Southeast 156 180 1,500 -421 Descending New York TRACON
Sun 06:03:32 PM 40.8167 -74.3833 201° Southwest 155 178 1,200 -300 Descending New York TRACON
Sun 06:05:00 PM 40.7833 -74.4000 62° Northeast  Level FlightAware Approximate
Sun 06:12:00 PM 40.7993 -74.4149 62° Northeast  Level Estimated
Sun 06:13:00 PM 40.7993 -74.4149 62° Northeast  Level Estimated

Login

Don't have an account? Register now (free) for customized features, flight alerts, and more!